sensor_id;sensor_type;location;lat;lon;timestamp;P1;durP1;ratioP1;P2;durP2;ratioP2
4174;SDS011;2101;48.290;14.382;2022-10-31T00:00:06;55.83;;;6.43;;
4174;SDS011;2101;48.290;14.382;2022-10-31T00:02:32;136.97;;;6.23;;
4174;SDS011;2101;48.290;14.382;2022-10-31T00:04:59;492.83;;;16.20;;
4174;SDS011;2101;48.290;14.382;2022-10-31T00:07:25;281.20;;;9.33;;
4174;SDS011;2101;48.290;14.382;2022-10-31T00:09:51;314.87;;;12.80;;
4174;SDS011;2101;48.290;14.382;2022-10-31T00:12:17;86.07;;;5.93;;
4174;SDS011;2101;48.290;14.382;2022-10-31T00:14:43;449.10;;;15.83;;
4174;SDS011;2101;48.290;14.382;2022-10-31T00:17:09;393.57;;;13.23;;
4174;SDS011;2101;48.290;14.382;2022-10-31T00:19:35;449.80;;;14.00;;
4174;SDS011;2101;48.290;14.382;2022-10-31T00:22:01;328.53;;;10.27;;
4174;SDS011;2101;48.290;14.382;2022-10-31T00:24:27;231.83;;;9.00;;
4174;SDS011;2101;48.290;14.382;2022-10-31T00:26:53;317.33;;;11.80;;
4174;SDS011;2101;48.290;14.382;2022-10-31T00:29:19;253.47;;;8.57;;
4174;SDS011;2101;48.290;14.382;2022-10-31T00:31:45;324.17;;;10.90;;
4174;SDS011;2101;48.290;14.382;2022-10-31T00:34:11;314.20;;;10.73;;
4174;SDS011;2101;48.290;14.382;2022-10-31T00:36:37;373.00;;;11.57;;
4174;SDS011;2101;48.290;14.382;2022-10-31T00:39:03;297.53;;;9.63;;
4174;SDS011;2101;48.290;14.382;2022-10-31T00:41:29;547.93;;;18.90;;
4174;SDS011;2101;48.290;14.382;2022-10-31T00:43:56;343.40;;;11.77;;
4174;SDS011;2101;48.290;14.382;2022-10-31T00:46:22;151.80;;;7.30;;
4174;SDS011;2101;48.290;14.382;2022-10-31T00:48:48;206.60;;;6.33;;
4174;SDS011;2101;48.290;14.382;2022-10-31T00:51:14;170.10;;;7.47;;
4174;SDS011;2101;48.290;14.382;2022-10-31T00:53:40;296.73;;;9.37;;
4174;SDS011;2101;48.290;14.382;2022-10-31T00:56:06;169.00;;;8.60;;
4174;SDS011;2101;48.290;14.382;2022-10-31T00:58:32;83.30;;;7.63;;
4174;SDS011;2101;48.290;14.382;2022-10-31T01:00:58;66.83;;;5.07;;
4174;SDS011;2101;48.290;14.382;2022-10-31T01:03:26;99.63;;;6.70;;
4174;SDS011;2101;48.290;14.382;2022-10-31T01:08:22;205.87;;;8.87;;
4174;SDS011;2101;48.290;14.382;2022-10-31T01:13:33;93.23;;;5.87;;
4174;SDS011;2101;48.290;14.382;2022-10-31T01:16:00;105.07;;;6.13;;
4174;SDS011;2101;48.290;14.382;2022-10-31T01:18:27;38.53;;;5.03;;
4174;SDS011;2101;48.290;14.382;2022-10-31T01:21:12;108.83;;;6.33;;
4174;SDS011;2101;48.290;14.382;2022-10-31T01:23:39;43.13;;;5.63;;
4174;SDS011;2101;48.290;14.382;2022-10-31T01:28:31;152.37;;;8.00;;
4174;SDS011;2101;48.290;14.382;2022-10-31T01:31:03;90.67;;;6.47;;
4174;SDS011;2101;48.290;14.382;2022-10-31T01:33:30;96.30;;;6.20;;
4174;SDS011;2101;48.290;14.382;2022-10-31T01:35:56;65.37;;;5.23;;
4174;SDS011;2101;48.290;14.382;2022-10-31T01:38:22;122.83;;;6.87;;
4174;SDS011;2101;48.290;14.382;2022-10-31T01:40:48;93.43;;;6.90;;
4174;SDS011;2101;48.290;14.382;2022-10-31T01:43:14;116.43;;;8.73;;
4174;SDS011;2101;48.290;14.382;2022-10-31T01:45:41;91.83;;;5.23;;
4174;SDS011;2101;48.290;14.382;2022-10-31T01:48:13;135.63;;;7.30;;
4174;SDS011;2101;48.290;14.382;2022-10-31T01:50:41;133.57;;;9.00;;
4174;SDS011;2101;48.290;14.382;2022-10-31T01:53:08;284.47;;;10.73;;
4174;SDS011;2101;48.290;14.382;2022-10-31T01:55:35;217.50;;;8.30;;
4174;SDS011;2101;48.290;14.382;2022-10-31T01:58:07;307.67;;;13.63;;
4174;SDS011;2101;48.290;14.382;2022-10-31T02:00:34;274.73;;;10.43;;
4174;SDS011;2101;48.290;14.382;2022-10-31T02:03:00;306.40;;;10.57;;
4174;SDS011;2101;48.290;14.382;2022-10-31T02:05:27;121.73;;;6.97;;
4174;SDS011;2101;48.290;14.382;2022-10-31T02:07:59;313.13;;;9.63;;
4174;SDS011;2101;48.290;14.382;2022-10-31T02:10:27;247.20;;;11.40;;
4174;SDS011;2101;48.290;14.382;2022-10-31T02:12:55;259.57;;;10.80;;
4174;SDS011;2101;48.290;14.382;2022-10-31T02:15:22;281.30;;;13.00;;
4174;SDS011;2101;48.290;14.382;2022-10-31T02:17:48;267.80;;;12.63;;
4174;SDS011;2101;48.290;14.382;2022-10-31T02:20:16;302.43;;;11.03;;
4174;SDS011;2101;48.290;14.382;2022-10-31T02:44:06;170.03;;;12.50;;
4174;SDS011;2101;48.290;14.382;2022-10-31T02:46:44;241.30;;;15.30;;
4174;SDS011;2101;48.290;14.382;2022-10-31T02:49:12;314.53;;;14.63;;
4174;SDS011;2101;48.290;14.382;2022-10-31T02:51:41;239.67;;;14.30;;
4174;SDS011;2101;48.290;14.382;2022-10-31T02:54:17;495.47;;;26.30;;
4174;SDS011;2101;48.290;14.382;2022-10-31T02:56:43;162.63;;;11.37;;
4174;SDS011;2101;48.290;14.382;2022-10-31T02:59:09;261.23;;;13.23;;
4174;SDS011;2101;48.290;14.382;2022-10-31T03:09:19;205.77;;;14.33;;
4174;SDS011;2101;48.290;14.382;2022-10-31T03:11:53;594.13;;;23.37;;
4174;SDS011;2101;48.290;14.382;2022-10-31T03:14:31;211.37;;;8.90;;
4174;SDS011;2101;48.290;14.382;2022-10-31T03:16:59;149.47;;;9.67;;
4174;SDS011;2101;48.290;14.382;2022-10-31T03:19:31;244.90;;;12.00;;
4174;SDS011;2101;48.290;14.382;2022-10-31T03:22:00;208.97;;;9.93;;
4174;SDS011;2101;48.290;14.382;2022-10-31T03:24:28;139.47;;;8.30;;
4174;SDS011;2101;48.290;14.382;2022-10-31T03:26:56;197.43;;;11.57;;
4174;SDS011;2101;48.290;14.382;2022-10-31T03:29:25;190.73;;;9.80;;
4174;SDS011;2101;48.290;14.382;2022-10-31T03:31:57;242.97;;;8.87;;
4174;SDS011;2101;48.290;14.382;2022-10-31T03:34:23;277.63;;;8.93;;
4174;SDS011;2101;48.290;14.382;2022-10-31T03:36:50;184.07;;;7.83;;
4174;SDS011;2101;48.290;14.382;2022-10-31T03:39:18;149.33;;;7.80;;
4174;SDS011;2101;48.290;14.382;2022-10-31T03:41:46;181.57;;;10.77;;
4174;SDS011;2101;48.290;14.382;2022-10-31T03:44:15;184.63;;;9.07;;
4174;SDS011;2101;48.290;14.382;2022-10-31T03:46:42;267.50;;;9.80;;
4174;SDS011;2101;48.290;14.382;2022-10-31T03:49:09;117.07;;;7.27;;
4174;SDS011;2101;48.290;14.382;2022-10-31T03:51:55;143.90;;;8.17;;
4174;SDS011;2101;48.290;14.382;2022-10-31T03:54:24;148.63;;;7.27;;
4174;SDS011;2101;48.290;14.382;2022-10-31T03:57:03;220.77;;;9.53;;
4174;SDS011;2101;48.290;14.382;2022-10-31T03:59:39;95.13;;;8.10;;
4174;SDS011;2101;48.290;14.382;2022-10-31T04:02:07;211.20;;;10.67;;
4174;SDS011;2101;48.290;14.382;2022-10-31T04:04:36;104.43;;;9.47;;
4174;SDS011;2101;48.290;14.382;2022-10-31T04:07:02;315.50;;;19.57;;
4174;SDS011;2101;48.290;14.382;2022-10-31T04:09:29;366.80;;;20.13;;
4174;SDS011;2101;48.290;14.382;2022-10-31T04:11:57;335.70;;;18.50;;
4174;SDS011;2101;48.290;14.382;2022-10-31T04:14:25;375.90;;;23.67;;
4174;SDS011;2101;48.290;14.382;2022-10-31T04:16:52;551.93;;;28.20;;
4174;SDS011;2101;48.290;14.382;2022-10-31T04:19:18;324.63;;;21.93;;
4174;SDS011;2101;48.290;14.382;2022-10-31T04:21:44;240.37;;;13.30;;
4174;SDS011;2101;48.290;14.382;2022-10-31T04:24:10;208.73;;;9.90;;
4174;SDS011;2101;48.290;14.382;2022-10-31T04:26:36;169.60;;;10.13;;
4174;SDS011;2101;48.290;14.382;2022-10-31T04:29:02;177.50;;;10.13;;
4174;SDS011;2101;48.290;14.382;2022-10-31T04:31:28;103.53;;;7.97;;
4174;SDS011;2101;48.290;14.382;2022-10-31T04:33:54;196.93;;;10.30;;
4174;SDS011;2101;48.290;14.382;2022-10-31T04:36:21;212.27;;;10.90;;
4174;SDS011;2101;48.290;14.382;2022-10-31T04:38:47;112.07;;;7.80;;
4174;SDS011;2101;48.290;14.382;2022-10-31T04:41:13;66.90;;;5.50;;
4174;SDS011;2101;48.290;14.382;2022-10-31T04:43:39;139.37;;;8.33;;
4174;SDS011;2101;48.290;14.382;2022-10-31T04:46:05;155.43;;;9.03;;
4174;SDS011;2101;48.290;14.382;2022-10-31T04:48:31;222.37;;;10.40;;
4174;SDS011;2101;48.290;14.382;2022-10-31T04:51:00;80.97;;;5.70;;
4174;SDS011;2101;48.290;14.382;2022-10-31T04:53:27;215.57;;;9.03;;
4174;SDS011;2101;48.290;14.382;2022-10-31T04:55:53;217.43;;;10.10;;
4174;SDS011;2101;48.290;14.382;2022-10-31T04:58:19;101.60;;;6.30;;
4174;SDS011;2101;48.290;14.382;2022-10-31T05:00:45;327.63;;;11.47;;
4174;SDS011;2101;48.290;14.382;2022-10-31T05:03:11;166.60;;;9.10;;
4174;SDS011;2101;48.290;14.382;2022-10-31T05:05:37;408.73;;;16.37;;
4174;SDS011;2101;48.290;14.382;2022-10-31T05:08:03;239.37;;;10.90;;
4174;SDS011;2101;48.290;14.382;2022-10-31T05:10:30;111.20;;;5.97;;
4174;SDS011;2101;48.290;14.382;2022-10-31T05:12:57;176.00;;;7.80;;
4174;SDS011;2101;48.290;14.382;2022-10-31T05:15:24;137.40;;;8.37;;
4174;SDS011;2101;48.290;14.382;2022-10-31T05:17:51;113.87;;;7.60;;
4174;SDS011;2101;48.290;14.382;2022-10-31T05:20:19;155.37;;;8.23;;
4174;SDS011;2101;48.290;14.382;2022-10-31T05:22:46;225.97;;;8.60;;
4174;SDS011;2101;48.290;14.382;2022-10-31T05:25:12;397.60;;;16.23;;
4174;SDS011;2101;48.290;14.382;2022-10-31T05:27:41;686.37;;;25.30;;
4174;SDS011;2101;48.290;14.382;2022-10-31T05:30:08;262.03;;;10.80;;
4174;SDS011;2101;48.290;14.382;2022-10-31T05:32:44;339.73;;;14.83;;
4174;SDS011;2101;48.290;14.382;2022-10-31T05:35:12;110.73;;;7.53;;
4174;SDS011;2101;48.290;14.382;2022-10-31T05:37:39;269.20;;;9.87;;
4174;SDS011;2101;48.290;14.382;2022-10-31T05:40:06;416.50;;;15.50;;
4174;SDS011;2101;48.290;14.382;2022-10-31T05:42:32;471.37;;;17.17;;
4174;SDS011;2101;48.290;14.382;2022-10-31T05:44:58;178.40;;;9.53;;
4174;SDS011;2101;48.290;14.382;2022-10-31T05:47:24;209.63;;;10.47;;
4174;SDS011;2101;48.290;14.382;2022-10-31T05:49:51;547.83;;;18.67;;
4174;SDS011;2101;48.290;14.382;2022-10-31T05:52:17;88.90;;;4.47;;
4174;SDS011;2101;48.290;14.382;2022-10-31T05:54:43;169.10;;;7.10;;
4174;SDS011;2101;48.290;14.382;2022-10-31T05:57:10;196.33;;;8.60;;
4174;SDS011;2101;48.290;14.382;2022-10-31T05:59:36;59.53;;;5.40;;
4174;SDS011;2101;48.290;14.382;2022-10-31T06:02:02;88.97;;;5.40;;
4174;SDS011;2101;48.290;14.382;2022-10-31T06:04:28;94.73;;;6.70;;
4174;SDS011;2101;48.290;14.382;2022-10-31T06:06:54;75.27;;;5.50;;
4174;SDS011;2101;48.290;14.382;2022-10-31T06:09:22;164.70;;;9.50;;
4174;SDS011;2101;48.290;14.382;2022-10-31T06:11:48;115.90;;;7.27;;
4174;SDS011;2101;48.290;14.382;2022-10-31T06:14:14;71.30;;;6.17;;
4174;SDS011;2101;48.290;14.382;2022-10-31T06:16:40;96.43;;;6.67;;
4174;SDS011;2101;48.290;14.382;2022-10-31T06:19:06;88.93;;;6.90;;
4174;SDS011;2101;48.290;14.382;2022-10-31T06:21:32;224.17;;;9.37;;
4174;SDS011;2101;48.290;14.382;2022-10-31T06:23:58;275.90;;;11.20;;
4174;SDS011;2101;48.290;14.382;2022-10-31T06:26:24;161.37;;;8.60;;
4174;SDS011;2101;48.290;14.382;2022-10-31T06:28:51;138.47;;;9.23;;
4174;SDS011;2101;48.290;14.382;2022-10-31T06:31:17;225.50;;;11.57;;
4174;SDS011;2101;48.290;14.382;2022-10-31T06:33:44;241.17;;;12.70;;
4174;SDS011;2101;48.290;14.382;2022-10-31T06:36:10;100.37;;;7.00;;
4174;SDS011;2101;48.290;14.382;2022-10-31T06:38:37;107.83;;;9.83;;
4174;SDS011;2101;48.290;14.382;2022-10-31T06:41:03;285.93;;;17.80;;
4174;SDS011;2101;48.290;14.382;2022-10-31T06:43:29;155.00;;;12.20;;
4174;SDS011;2101;48.290;14.382;2022-10-31T06:45:56;149.17;;;10.07;;
4174;SDS011;2101;48.290;14.382;2022-10-31T06:48:22;127.23;;;11.10;;
4174;SDS011;2101;48.290;14.382;2022-10-31T06:50:48;143.10;;;9.03;;
4174;SDS011;2101;48.290;14.382;2022-10-31T06:53:14;229.97;;;14.73;;
4174;SDS011;2101;48.290;14.382;2022-10-31T06:55:41;185.83;;;13.20;;
4174;SDS011;2101;48.290;14.382;2022-10-31T06:58:08;265.83;;;16.30;;
4174;SDS011;2101;48.290;14.382;2022-10-31T07:00:35;271.70;;;14.87;;
4174;SDS011;2101;48.290;14.382;2022-10-31T07:03:05;202.37;;;15.90;;
4174;SDS011;2101;48.290;14.382;2022-10-31T07:05:32;267.33;;;21.00;;
4174;SDS011;2101;48.290;14.382;2022-10-31T07:07:59;354.40;;;20.20;;
4174;SDS011;2101;48.290;14.382;2022-10-31T07:10:26;256.13;;;18.77;;
4174;SDS011;2101;48.290;14.382;2022-10-31T07:12:56;334.47;;;21.20;;
4174;SDS011;2101;48.290;14.382;2022-10-31T07:15:26;391.80;;;23.40;;
4174;SDS011;2101;48.290;14.382;2022-10-31T07:17:52;394.90;;;25.10;;
4174;SDS011;2101;48.290;14.382;2022-10-31T07:20:18;321.73;;;15.93;;
4174;SDS011;2101;48.290;14.382;2022-10-31T07:22:45;159.70;;;13.67;;
4174;SDS011;2101;48.290;14.382;2022-10-31T07:25:11;437.37;;;27.50;;
4174;SDS011;2101;48.290;14.382;2022-10-31T07:27:38;450.90;;;24.63;;
4174;SDS011;2101;48.290;14.382;2022-10-31T07:30:04;130.17;;;14.77;;
4174;SDS011;2101;48.290;14.382;2022-10-31T07:32:40;320.13;;;19.27;;
4174;SDS011;2101;48.290;14.382;2022-10-31T07:35:07;180.90;;;13.97;;
4174;SDS011;2101;48.290;14.382;2022-10-31T07:37:33;403.33;;;26.07;;
4174;SDS011;2101;48.290;14.382;2022-10-31T07:39:59;283.47;;;20.73;;
4174;SDS011;2101;48.290;14.382;2022-10-31T07:42:25;330.10;;;20.80;;
4174;SDS011;2101;48.290;14.382;2022-10-31T07:44:51;245.73;;;17.47;;
4174;SDS011;2101;48.290;14.382;2022-10-31T07:47:18;149.33;;;14.90;;
4174;SDS011;2101;48.290;14.382;2022-10-31T07:49:44;303.73;;;22.37;;
4174;SDS011;2101;48.290;14.382;2022-10-31T07:52:10;656.27;;;38.23;;
4174;SDS011;2101;48.290;14.382;2022-10-31T07:54:36;284.50;;;19.00;;
4174;SDS011;2101;48.290;14.382;2022-10-31T07:57:02;686.17;;;33.83;;
4174;SDS011;2101;48.290;14.382;2022-10-31T07:59:28;196.90;;;17.93;;
4174;SDS011;2101;48.290;14.382;2022-10-31T08:01:54;281.70;;;18.40;;
4174;SDS011;2101;48.290;14.382;2022-10-31T08:04:20;119.27;;;15.67;;
4174;SDS011;2101;48.290;14.382;2022-10-31T08:06:46;304.87;;;21.80;;
4174;SDS011;2101;48.290;14.382;2022-10-31T08:09:13;404.77;;;24.30;;
4174;SDS011;2101;48.290;14.382;2022-10-31T08:11:39;347.83;;;24.80;;
4174;SDS011;2101;48.290;14.382;2022-10-31T08:14:05;324.57;;;23.30;;
4174;SDS011;2101;48.290;14.382;2022-10-31T08:16:31;264.47;;;21.57;;
4174;SDS011;2101;48.290;14.382;2022-10-31T08:18:57;451.97;;;31.63;;
4174;SDS011;2101;48.290;14.382;2022-10-31T08:21:23;1095.53;;;56.13;;
4174;SDS011;2101;48.290;14.382;2022-10-31T08:23:50;319.50;;;24.53;;
4174;SDS011;2101;48.290;14.382;2022-10-31T08:26:16;452.53;;;31.30;;
4174;SDS011;2101;48.290;14.382;2022-10-31T08:28:42;331.50;;;26.30;;
4174;SDS011;2101;48.290;14.382;2022-10-31T08:31:08;579.30;;;40.03;;
4174;SDS011;2101;48.290;14.382;2022-10-31T08:33:35;800.90;;;50.83;;
4174;SDS011;2101;48.290;14.382;2022-10-31T08:36:01;423.97;;;33.17;;
4174;SDS011;2101;48.290;14.382;2022-10-31T08:38:27;466.63;;;31.80;;
4174;SDS011;2101;48.290;14.382;2022-10-31T08:40:53;141.53;;;25.30;;
4174;SDS011;2101;48.290;14.382;2022-10-31T08:43:19;791.33;;;44.93;;
4174;SDS011;2101;48.290;14.382;2022-10-31T08:45:47;400.33;;;31.17;;
4174;SDS011;2101;48.290;14.382;2022-10-31T08:48:14;258.97;;;26.33;;
4174;SDS011;2101;48.290;14.382;2022-10-31T08:50:41;451.07;;;30.83;;
4174;SDS011;2101;48.290;14.382;2022-10-31T08:53:10;335.33;;;28.43;;
4174;SDS011;2101;48.290;14.382;2022-10-31T08:55:37;739.57;;;42.13;;
4174;SDS011;2101;48.290;14.382;2022-10-31T08:58:04;208.87;;;26.87;;
4174;SDS011;2101;48.290;14.382;2022-10-31T09:00:30;394.60;;;32.23;;
4174;SDS011;2101;48.290;14.382;2022-10-31T09:02:57;366.60;;;27.90;;
4174;SDS011;2101;48.290;14.382;2022-10-31T09:05:23;546.33;;;39.10;;
4174;SDS011;2101;48.290;14.382;2022-10-31T09:07:50;701.80;;;42.53;;
4174;SDS011;2101;48.290;14.382;2022-10-31T09:10:16;312.10;;;23.03;;
4174;SDS011;2101;48.290;14.382;2022-10-31T09:12:42;312.30;;;26.70;;
4174;SDS011;2101;48.290;14.382;2022-10-31T09:15:08;345.93;;;25.60;;
4174;SDS011;2101;48.290;14.382;2022-10-31T09:17:34;454.23;;;27.63;;
4174;SDS011;2101;48.290;14.382;2022-10-31T09:20:00;341.23;;;24.33;;
4174;SDS011;2101;48.290;14.382;2022-10-31T09:22:26;665.77;;;34.83;;
4174;SDS011;2101;48.290;14.382;2022-10-31T09:24:52;834.13;;;41.10;;
4174;SDS011;2101;48.290;14.382;2022-10-31T09:27:19;256.03;;;21.00;;
4174;SDS011;2101;48.290;14.382;2022-10-31T09:29:45;335.67;;;23.27;;
4174;SDS011;2101;48.290;14.382;2022-10-31T09:32:11;193.37;;;21.77;;
4174;SDS011;2101;48.290;14.382;2022-10-31T09:34:37;794.53;;;41.00;;
4174;SDS011;2101;48.290;14.382;2022-10-31T09:37:03;234.47;;;19.77;;
4174;SDS011;2101;48.290;14.382;2022-10-31T09:39:29;269.07;;;19.60;;
4174;SDS011;2101;48.290;14.382;2022-10-31T09:50:11;203.00;;;21.00;;
4174;SDS011;2101;48.290;14.382;2022-10-31T09:52:40;378.33;;;27.27;;
4174;SDS011;2101;48.290;14.382;2022-10-31T09:57:35;217.00;;;20.60;;
4174;SDS011;2101;48.290;14.382;2022-10-31T10:00:05;374.10;;;27.13;;
4174;SDS011;2101;48.290;14.382;2022-10-31T10:02:46;228.47;;;18.93;;
4174;SDS011;2101;48.290;14.382;2022-10-31T10:05:14;161.97;;;18.23;;
4174;SDS011;2101;48.290;14.382;2022-10-31T10:10:16;60.60;;;17.33;;
4174;SDS011;2101;48.290;14.382;2022-10-31T10:17:39;103.53;;;18.60;;
4174;SDS011;2101;48.290;14.382;2022-10-31T10:20:11;118.87;;;18.80;;
4174;SDS011;2101;48.290;14.382;2022-10-31T10:22:43;228.40;;;18.40;;
4174;SDS011;2101;48.290;14.382;2022-10-31T10:25:25;157.80;;;15.77;;
4174;SDS011;2101;48.290;14.382;2022-10-31T10:28:11;301.27;;;20.67;;
4174;SDS011;2101;48.290;14.382;2022-10-31T10:30:42;95.00;;;18.47;;
4174;SDS011;2101;48.290;14.382;2022-10-31T10:33:13;202.70;;;23.00;;
4174;SDS011;2101;48.290;14.382;2022-10-31T10:35:50;167.70;;;19.23;;
4174;SDS011;2101;48.290;14.382;2022-10-31T10:38:34;376.07;;;23.07;;
4174;SDS011;2101;48.290;14.382;2022-10-31T10:41:04;142.37;;;17.70;;
4174;SDS011;2101;48.290;14.382;2022-10-31T10:43:36;300.97;;;20.63;;
4174;SDS011;2101;48.290;14.382;2022-10-31T10:59:31;109.50;;;18.43;;
4174;SDS011;2101;48.290;14.382;2022-10-31T11:01:57;64.57;;;19.03;;
4174;SDS011;2101;48.290;14.382;2022-10-31T11:04:31;83.93;;;21.13;;
4174;SDS011;2101;48.290;14.382;2022-10-31T11:09:30;73.37;;;17.77;;
4174;SDS011;2101;48.290;14.382;2022-10-31T11:11:56;230.20;;;23.70;;
4174;SDS011;2101;48.290;14.382;2022-10-31T11:14:23;221.00;;;21.57;;
4174;SDS011;2101;48.290;14.382;2022-10-31T11:16:52;165.50;;;21.00;;
4174;SDS011;2101;48.290;14.382;2022-10-31T11:19:20;123.57;;;21.57;;
4174;SDS011;2101;48.290;14.382;2022-10-31T11:21:47;78.63;;;17.53;;
4174;SDS011;2101;48.290;14.382;2022-10-31T11:24:14;63.47;;;19.53;;
4174;SDS011;2101;48.290;14.382;2022-10-31T11:26:41;64.70;;;18.50;;
4174;SDS011;2101;48.290;14.382;2022-10-31T11:29:15;59.87;;;18.10;;
4174;SDS011;2101;48.290;14.382;2022-10-31T11:31:42;64.47;;;18.17;;
4174;SDS011;2101;48.290;14.382;2022-10-31T11:34:24;62.80;;;18.77;;
4174;SDS011;2101;48.290;14.382;2022-10-31T11:36:52;58.47;;;17.27;;
4174;SDS011;2101;48.290;14.382;2022-10-31T11:39:19;60.87;;;17.27;;
4174;SDS011;2101;48.290;14.382;2022-10-31T11:41:46;64.50;;;16.80;;
4174;SDS011;2101;48.290;14.382;2022-10-31T11:44:17;60.90;;;16.80;;
4174;SDS011;2101;48.290;14.382;2022-10-31T11:46:45;57.50;;;16.00;;
4174;SDS011;2101;48.290;14.382;2022-10-31T11:49:28;45.80;;;15.20;;
4174;SDS011;2101;48.290;14.382;2022-10-31T11:51:56;58.07;;;15.23;;
4174;SDS011;2101;48.290;14.382;2022-10-31T11:54:30;53.20;;;15.93;;
4174;SDS011;2101;48.290;14.382;2022-10-31T11:56:57;63.77;;;16.10;;
4174;SDS011;2101;48.290;14.382;2022-10-31T11:59:25;62.13;;;16.17;;
4174;SDS011;2101;48.290;14.382;2022-10-31T12:01:53;52.60;;;16.13;;
4174;SDS011;2101;48.290;14.382;2022-10-31T12:04:21;48.53;;;15.70;;
4174;SDS011;2101;48.290;14.382;2022-10-31T12:06:48;54.77;;;16.10;;
4174;SDS011;2101;48.290;14.382;2022-10-31T12:19:50;51.20;;;16.03;;
4174;SDS011;2101;48.290;14.382;2022-10-31T12:22:25;56.17;;;16.80;;
4174;SDS011;2101;48.290;14.382;2022-10-31T12:24:58;46.43;;;15.83;;
4174;SDS011;2101;48.290;14.382;2022-10-31T12:27:35;51.27;;;16.23;;
4174;SDS011;2101;48.290;14.382;2022-10-31T12:37:35;48.23;;;15.93;;
4174;SDS011;2101;48.290;14.382;2022-10-31T12:55:48;61.07;;;17.30;;
4174;SDS011;2101;48.290;14.382;2022-10-31T12:58:24;59.70;;;17.20;;
4174;SDS011;2101;48.290;14.382;2022-10-31T13:01:14;52.77;;;14.90;;
4174;SDS011;2101;48.290;14.382;2022-10-31T13:03:42;49.80;;;15.63;;
4174;SDS011;2101;48.290;14.382;2022-10-31T13:06:19;50.43;;;16.93;;
4174;SDS011;2101;48.290;14.382;2022-10-31T13:08:51;49.10;;;16.03;;
4174;SDS011;2101;48.290;14.382;2022-10-31T13:13:47;56.90;;;18.57;;
4174;SDS011;2101;48.290;14.382;2022-10-31T13:24:16;47.30;;;15.60;;
4174;SDS011;2101;48.290;14.382;2022-10-31T13:26:47;48.60;;;16.00;;
4174;SDS011;2101;48.290;14.382;2022-10-31T13:31:55;68.13;;;16.23;;
4174;SDS011;2101;48.290;14.382;2022-10-31T13:34:39;52.27;;;17.60;;
4174;SDS011;2101;48.290;14.382;2022-10-31T13:40:09;52.13;;;16.43;;
4174;SDS011;2101;48.290;14.382;2022-10-31T13:42:37;51.00;;;15.63;;
4174;SDS011;2101;48.290;14.382;2022-10-31T13:45:12;47.90;;;16.00;;
4174;SDS011;2101;48.290;14.382;2022-10-31T13:47:40;41.80;;;14.97;;
4174;SDS011;2101;48.290;14.382;2022-10-31T13:52:45;44.07;;;14.87;;
4174;SDS011;2101;48.290;14.382;2022-10-31T13:57:56;50.03;;;15.10;;
4174;SDS011;2101;48.290;14.382;2022-10-31T14:00:25;52.50;;;14.90;;
4174;SDS011;2101;48.290;14.382;2022-10-31T14:02:53;40.93;;;14.20;;
4174;SDS011;2101;48.290;14.382;2022-10-31T14:07:52;49.30;;;14.60;;
4174;SDS011;2101;48.290;14.382;2022-10-31T14:12:51;48.83;;;18.00;;
4174;SDS011;2101;48.290;14.382;2022-10-31T14:15:22;43.57;;;16.10;;
4174;SDS011;2101;48.290;14.382;2022-10-31T14:17:52;59.87;;;18.40;;
4174;SDS011;2101;48.290;14.382;2022-10-31T14:20:21;45.43;;;16.90;;
4174;SDS011;2101;48.290;14.382;2022-10-31T14:22:48;45.80;;;15.87;;
4174;SDS011;2101;48.290;14.382;2022-10-31T14:25:34;54.40;;;15.87;;
4174;SDS011;2101;48.290;14.382;2022-10-31T14:28:01;45.40;;;13.50;;
4174;SDS011;2101;48.290;14.382;2022-10-31T14:30:28;52.27;;;15.53;;
4174;SDS011;2101;48.290;14.382;2022-10-31T14:32:56;46.60;;;16.07;;
4174;SDS011;2101;48.290;14.382;2022-10-31T14:35:25;46.77;;;15.47;;
4174;SDS011;2101;48.290;14.382;2022-10-31T14:40:58;56.67;;;15.13;;
4174;SDS011;2101;48.290;14.382;2022-10-31T14:43:33;51.87;;;14.63;;
4174;SDS011;2101;48.290;14.382;2022-10-31T14:46:02;47.23;;;11.53;;
4174;SDS011;2101;48.290;14.382;2022-10-31T14:48:35;42.10;;;13.10;;
4174;SDS011;2101;48.290;14.382;2022-10-31T14:51:09;45.40;;;15.20;;
4174;SDS011;2101;48.290;14.382;2022-10-31T14:53:44;42.70;;;14.97;;
4174;SDS011;2101;48.290;14.382;2022-10-31T14:56:11;46.40;;;14.80;;
4174;SDS011;2101;48.290;14.382;2022-10-31T15:01:04;52.93;;;15.53;;
4174;SDS011;2101;48.290;14.382;2022-10-31T15:03:31;35.43;;;12.00;;
4174;SDS011;2101;48.290;14.382;2022-10-31T15:06:00;38.53;;;13.03;;
4174;SDS011;2101;48.290;14.382;2022-10-31T15:08:30;39.97;;;13.73;;
4174;SDS011;2101;48.290;14.382;2022-10-31T15:10:57;48.33;;;13.20;;
4174;SDS011;2101;48.290;14.382;2022-10-31T15:13:23;34.80;;;13.20;;
4174;SDS011;2101;48.290;14.382;2022-10-31T15:15:49;35.17;;;11.93;;
4174;SDS011;2101;48.290;14.382;2022-10-31T15:18:17;33.67;;;11.83;;
4174;SDS011;2101;48.290;14.382;2022-10-31T15:20:45;29.90;;;10.20;;
4174;SDS011;2101;48.290;14.382;2022-10-31T15:23:14;33.20;;;9.93;;
4174;SDS011;2101;48.290;14.382;2022-10-31T15:25:41;33.00;;;11.00;;
4174;SDS011;2101;48.290;14.382;2022-10-31T15:28:15;30.63;;;9.70;;
4174;SDS011;2101;48.290;14.382;2022-10-31T15:30:49;28.10;;;8.83;;
4174;SDS011;2101;48.290;14.382;2022-10-31T15:33:18;33.13;;;9.20;;
4174;SDS011;2101;48.290;14.382;2022-10-31T15:35:53;29.07;;;9.47;;
4174;SDS011;2101;48.290;14.382;2022-10-31T15:38:20;27.87;;;9.30;;
4174;SDS011;2101;48.290;14.382;2022-10-31T15:40:54;30.37;;;9.77;;
4174;SDS011;2101;48.290;14.382;2022-10-31T15:43:21;27.07;;;9.50;;
4174;SDS011;2101;48.290;14.382;2022-10-31T15:45:47;28.90;;;9.67;;
4174;SDS011;2101;48.290;14.382;2022-10-31T15:48:17;32.53;;;9.90;;
4174;SDS011;2101;48.290;14.382;2022-10-31T15:50:54;30.17;;;9.47;;
4174;SDS011;2101;48.290;14.382;2022-10-31T15:53:22;43.00;;;12.93;;
4174;SDS011;2101;48.290;14.382;2022-10-31T15:56:23;57.43;;;15.90;;
4174;SDS011;2101;48.290;14.382;2022-10-31T15:58:42;34.20;;;12.57;;
4174;SDS011;2101;48.290;14.382;2022-10-31T16:01:20;37.53;;;10.97;;
4174;SDS011;2101;48.290;14.382;2022-10-31T16:03:56;37.47;;;11.87;;
4174;SDS011;2101;48.290;14.382;2022-10-31T16:06:27;35.07;;;11.37;;
4174;SDS011;2101;48.290;14.382;2022-10-31T16:38:01;51.87;;;15.17;;
4174;SDS011;2101;48.290;14.382;2022-10-31T16:40:28;77.17;;;14.60;;
4174;SDS011;2101;48.290;14.382;2022-10-31T16:42:56;42.17;;;16.00;;
4174;SDS011;2101;48.290;14.382;2022-10-31T16:45:47;53.30;;;14.43;;
4174;SDS011;2101;48.290;14.382;2022-10-31T16:48:17;99.07;;;18.00;;
4174;SDS011;2101;48.290;14.382;2022-10-31T16:54:05;324.60;;;19.53;;
4174;SDS011;2101;48.290;14.382;2022-10-31T16:56:32;274.73;;;18.10;;
4174;SDS011;2101;48.290;14.382;2022-10-31T16:59:01;198.27;;;18.47;;
4174;SDS011;2101;48.290;14.382;2022-10-31T17:01:38;184.90;;;16.40;;
4174;SDS011;2101;48.290;14.382;2022-10-31T17:48:21;303.27;;;18.80;;
4174;SDS011;2101;48.290;14.382;2022-10-31T17:50:52;376.50;;;16.43;;
4174;SDS011;2101;48.290;14.382;2022-10-31T17:53:18;457.87;;;24.97;;
4174;SDS011;2101;48.290;14.382;2022-10-31T17:55:46;449.77;;;24.87;;
4174;SDS011;2101;48.290;14.382;2022-10-31T17:58:12;278.57;;;12.80;;
4174;SDS011;2101;48.290;14.382;2022-10-31T18:00:39;301.87;;;14.10;;
4174;SDS011;2101;48.290;14.382;2022-10-31T18:03:05;362.23;;;19.43;;
4174;SDS011;2101;48.290;14.382;2022-10-31T18:05:34;477.90;;;25.13;;
4174;SDS011;2101;48.290;14.382;2022-10-31T18:08:01;498.27;;;23.40;;